createdAt,value
2023-01-18T00:01:13.585Z,7.18
2023-01-18T00:03:40.512Z,8.43
2023-01-18T00:06:09.189Z,6.65
2023-01-18T00:08:37.526Z,9.60
2023-01-18T00:11:06.989Z,7.38
2023-01-18T00:13:35.816Z,9.50
2023-01-18T00:16:04.335Z,6.13
2023-01-18T00:18:31.518Z,8.48
2023-01-18T00:21:06.423Z,6.93
2023-01-18T00:23:33.276Z,10.35
2023-01-18T00:26:04.618Z,7.80
2023-01-18T00:28:31.472Z,6.07
2023-01-18T00:31:01.345Z,6.18
2023-01-18T00:33:28.314Z,10.02
2023-01-18T00:35:59.387Z,6.70
2023-01-18T00:38:26.639Z,6.80
2023-01-18T00:40:53.183Z,8.25
2023-01-18T00:43:38.340Z,5.20
2023-01-18T00:46:10.968Z,7.70
2023-01-18T00:48:41.191Z,8.05
2023-01-18T00:51:09.527Z,7.18
2023-01-18T00:53:38.158Z,7.90
2023-01-18T00:56:09.930Z,6.63
2023-01-18T00:58:37.749Z,7.75
2023-01-18T01:01:06.221Z,8.50
2023-01-18T01:03:53.462Z,8.80
2023-01-18T01:06:45.445Z,7.55
2023-01-18T01:09:16.905Z,7.03
2023-01-18T01:12:03.032Z,6.85
2023-01-18T01:14:49.168Z,5.45
2023-01-18T01:17:36.097Z,5.30
2023-01-18T01:20:21.932Z,9.02
2023-01-18T01:23:07.164Z,6.45
2023-01-18T01:25:54.327Z,8.32
2023-01-18T01:28:21.014Z,5.32
2023-01-18T01:30:47.770Z,6.65
2023-01-18T01:33:14.464Z,7.00
2023-01-18T01:35:41.053Z,8.55
2023-01-18T01:38:07.536Z,7.38
2023-01-18T01:40:34.388Z,6.22
2023-01-18T01:43:01.073Z,6.53
2023-01-18T01:45:31.563Z,8.15
2023-01-18T01:47:58.828Z,6.53
2023-01-18T01:50:33.866Z,5.57
2023-01-18T01:53:00.406Z,7.47
2023-01-18T01:55:36.918Z,6.03
2023-01-18T01:58:22.446Z,7.20
2023-01-18T02:00:49.280Z,5.40
2023-01-18T02:03:20.975Z,7.80
2023-01-18T02:05:52.914Z,5.80
2023-01-18T02:08:23.016Z,10.35
2023-01-18T02:10:50.881Z,9.38
2023-01-18T02:13:19.902Z,5.95
2023-01-18T02:16:32.141Z,7.78
2023-01-18T02:19:17.123Z,7.75
2023-01-18T02:21:46.646Z,8.60
2023-01-18T02:24:50.540Z,7.85
2023-01-18T02:27:33.812Z,6.70
2023-01-18T02:30:09.223Z,6.82
2023-01-18T02:32:49.814Z,9.05
2023-01-18T02:35:41.715Z,6.63
2023-01-18T02:38:26.363Z,6.45
2023-01-18T02:41:17.022Z,7.22
2023-01-18T02:44:04.041Z,6.90
2023-01-18T02:46:35.837Z,6.93
2023-01-18T02:49:23.745Z,7.47
2023-01-18T02:51:50.411Z,11.38
2023-01-18T02:54:24.428Z,9.15
2023-01-18T02:56:53.882Z,7.03
2023-01-18T02:59:28.069Z,8.48
2023-01-18T03:02:01.966Z,9.93
2023-01-18T03:04:33.536Z,8.13
2023-01-18T03:07:11.227Z,7.93
2023-01-18T03:09:39.751Z,6.82
2023-01-18T03:12:12.837Z,8.27
2023-01-18T03:14:55.311Z,8.05
2023-01-18T03:17:29.556Z,7.72
2023-01-18T03:20:03.788Z,6.32
2023-01-18T03:22:54.219Z,9.90
2023-01-18T03:25:35.072Z,7.75
2023-01-18T03:28:27.886Z,9.13
2023-01-18T03:31:18.611Z,7.70
2023-01-18T03:33:55.211Z,7.82
2023-01-18T03:36:38.587Z,7.82
2023-01-18T03:39:10.343Z,7.07
2023-01-18T03:41:42.273Z,8.52
2023-01-18T03:44:18.503Z,8.48
2023-01-18T03:46:45.461Z,7.43
2023-01-18T03:49:13.041Z,13.68
2023-01-18T03:52:15.525Z,6.93
2023-01-18T03:54:55.118Z,9.82
2023-01-18T03:57:31.989Z,7.13
2023-01-18T04:00:00.218Z,8.55
2023-01-18T04:02:28.000Z,7.13
2023-01-18T04:04:57.651Z,6.95
2023-01-18T04:07:28.550Z,8.45
2023-01-18T04:09:55.068Z,7.18
2023-01-18T04:12:21.653Z,9.57
2023-01-18T04:14:48.344Z,9.00
2023-01-18T04:17:15.079Z,6.53
2023-01-18T04:19:41.716Z,6.45
2023-01-18T04:22:09.859Z,8.52
2023-01-18T04:24:36.574Z,6.32
2023-01-18T04:27:03.871Z,8.52
2023-01-18T04:29:31.033Z,8.20
2023-01-18T04:31:58.007Z,9.43
2023-01-18T04:34:24.658Z,8.20
2023-01-18T04:36:51.754Z,8.57
2023-01-18T04:39:18.751Z,6.88
2023-01-18T04:41:45.937Z,9.50
2023-01-18T04:44:12.897Z,8.70
2023-01-18T04:46:39.854Z,7.93
2023-01-18T04:49:10.310Z,6.72
2023-01-18T04:51:38.774Z,6.85
2023-01-18T04:54:05.271Z,7.13
2023-01-18T04:56:31.913Z,7.18
2023-01-18T04:58:58.352Z,6.03
2023-01-18T05:01:25.382Z,6.95
2023-01-18T05:03:56.316Z,5.30
2023-01-18T05:06:24.505Z,6.35
2023-01-18T05:08:51.458Z,5.40
2023-01-18T05:11:20.935Z,11.73
2023-01-18T05:13:47.403Z,10.45
2023-01-18T05:16:17.569Z,9.20
2023-01-18T05:18:44.793Z,6.35
2023-01-18T05:21:11.740Z,5.43
2023-01-18T05:23:40.267Z,6.60
2023-01-18T05:26:14.431Z,4.80
2023-01-18T05:28:41.768Z,8.43
2023-01-18T05:31:08.934Z,6.57
2023-01-18T05:33:36.183Z,5.88
2023-01-18T05:36:02.860Z,7.10
2023-01-18T05:38:29.408Z,5.20
2023-01-18T05:40:56.019Z,7.70
2023-01-18T05:43:24.318Z,7.60
2023-01-18T05:45:51.096Z,7.93
2023-01-18T05:48:18.551Z,7.70
2023-01-18T05:50:46.753Z,5.50
2023-01-18T05:53:16.479Z,5.38
2023-01-18T05:55:43.626Z,5.77
2023-01-18T05:58:10.415Z,5.43
2023-01-18T06:00:37.082Z,7.38
2023-01-18T06:03:03.608Z,6.80
2023-01-18T06:05:30.527Z,6.30
2023-01-18T06:07:57.045Z,8.95
2023-01-18T06:10:23.734Z,7.40
2023-01-18T06:12:50.459Z,4.63
2023-01-18T06:15:18.552Z,6.88
2023-01-18T06:17:47.073Z,6.82
2023-01-18T06:20:14.502Z,6.15
2023-01-18T06:22:41.065Z,5.18
2023-01-18T06:25:09.940Z,4.28
2023-01-18T06:27:37.645Z,6.20
2023-01-18T06:30:06.262Z,9.55
2023-01-18T06:32:33.178Z,7.38
2023-01-18T06:34:59.809Z,11.55
2023-01-18T06:37:26.597Z,7.32
2023-01-18T06:39:53.191Z,3.97
2023-01-18T06:42:19.788Z,5.10
2023-01-18T06:44:46.369Z,5.00
2023-01-18T06:47:15.502Z,6.95
2023-01-18T06:49:42.066Z,5.45
2023-01-18T06:52:08.582Z,5.70
2023-01-18T06:54:35.884Z,6.25
2023-01-18T06:57:02.736Z,6.72
2023-01-18T06:59:29.284Z,4.32
2023-01-18T07:01:55.968Z,6.88
2023-01-18T07:04:22.591Z,4.82
2023-01-18T07:06:49.468Z,4.60
2023-01-18T07:09:16.095Z,6.10
2023-01-18T07:11:43.386Z,3.35
2023-01-18T07:14:13.762Z,6.65
2023-01-18T07:16:40.633Z,14.30
2023-01-18T07:19:07.281Z,5.80
2023-01-18T07:21:33.955Z,6.72
2023-01-18T07:24:00.531Z,7.22
2023-01-18T07:26:27.119Z,9.27
2023-01-18T07:28:56.569Z,8.65
2023-01-18T07:31:25.206Z,6.25
2023-01-18T07:33:52.305Z,6.55
2023-01-18T07:36:19.008Z,5.85
2023-01-18T07:38:46.989Z,4.00
2023-01-18T07:41:15.126Z,6.70
2023-01-18T07:43:43.766Z,10.60
2023-01-18T07:46:16.880Z,9.90
2023-01-18T07:48:44.642Z,9.15
2023-01-18T07:51:12.087Z,9.32
2023-01-18T07:53:39.080Z,7.93
2023-01-18T07:56:12.804Z,6.82
2023-01-18T07:58:40.020Z,7.20
2023-01-18T08:01:09.653Z,9.55
2023-01-18T08:03:37.453Z,8.57
2023-01-18T08:06:06.460Z,5.82
2023-01-18T08:08:35.099Z,6.10
2023-01-18T08:11:03.983Z,7.60
2023-01-18T08:13:31.134Z,7.18
2023-01-18T08:16:00.370Z,6.20
2023-01-18T08:18:27.042Z,7.63
2023-01-18T08:20:55.153Z,7.72
2023-01-18T08:23:22.109Z,9.05
2023-01-18T08:25:48.677Z,10.13
2023-01-18T08:28:15.389Z,8.05
2023-01-18T08:30:45.319Z,7.28
2023-01-18T08:33:12.339Z,7.22
2023-01-18T08:35:44.451Z,10.60
2023-01-18T08:38:13.233Z,9.02
2023-01-18T08:40:40.201Z,7.78
2023-01-18T08:43:07.353Z,12.75
2023-01-18T08:45:37.411Z,8.05
2023-01-18T08:48:07.028Z,4.30
2023-01-18T08:50:34.960Z,10.50
2023-01-18T08:53:02.777Z,6.57
2023-01-18T08:55:34.138Z,14.50
2023-01-18T08:58:00.849Z,10.15
2023-01-18T09:00:30.682Z,9.60
2023-01-18T09:02:58.708Z,10.55
2023-01-18T09:05:27.766Z,8.07
2023-01-18T09:07:55.170Z,9.00
2023-01-18T09:10:22.862Z,8.98
2023-01-18T09:12:49.699Z,10.10
2023-01-18T09:15:18.193Z,11.40
2023-01-18T09:17:45.127Z,10.05
2023-01-18T09:20:12.342Z,7.93
2023-01-18T09:22:39.589Z,10.68
2023-01-18T09:25:06.700Z,9.00
2023-01-18T09:27:33.541Z,11.75
2023-01-18T09:30:00.345Z,7.55
2023-01-18T09:32:27.511Z,10.02
2023-01-18T09:34:54.898Z,10.20
2023-01-18T09:37:21.748Z,8.75
2023-01-18T09:39:52.083Z,12.32
2023-01-18T09:42:22.611Z,7.30
2023-01-18T09:44:53.872Z,7.13
2023-01-18T09:47:34.555Z,10.82
2023-01-18T09:50:10.914Z,9.48
2023-01-18T09:53:17.117Z,11.63
2023-01-18T09:55:46.673Z,10.18
2023-01-18T09:58:34.732Z,13.23
2023-01-18T10:01:08.133Z,8.20
2023-01-18T10:03:53.334Z,12.32
2023-01-18T10:06:26.259Z,7.32
2023-01-18T10:08:59.637Z,7.40
2023-01-18T10:11:33.243Z,11.25
2023-01-18T10:14:09.157Z,8.65
2023-01-18T10:16:38.063Z,10.23
2023-01-18T10:19:15.832Z,6.75
2023-01-18T10:21:52.209Z,4.82
2023-01-18T10:24:26.367Z,8.63
2023-01-18T10:26:57.326Z,6.50
2023-01-18T10:29:41.904Z,9.10
2023-01-18T10:32:20.814Z,10.27
2023-01-18T10:34:51.950Z,5.47
2023-01-18T10:37:37.630Z,7.63
2023-01-18T10:40:07.740Z,8.55
2023-01-18T10:42:43.503Z,8.10
2023-01-18T10:45:20.293Z,5.05
2023-01-18T10:47:53.243Z,6.13
2023-01-18T10:50:40.556Z,6.55
2023-01-18T10:53:19.197Z,7.32
2023-01-18T10:56:11.001Z,12.90
2023-01-18T10:58:44.409Z,8.18
2023-01-18T11:01:20.118Z,3.90
2023-01-18T11:03:50.721Z,7.20
2023-01-18T11:06:20.405Z,5.97
2023-01-18T11:08:48.793Z,6.68
2023-01-18T11:11:59.352Z,7.97
2023-01-18T11:14:30.925Z,9.90
2023-01-18T11:17:04.395Z,3.80
2023-01-18T11:19:31.109Z,5.38
2023-01-18T11:21:57.825Z,3.97
2023-01-18T11:24:29.866Z,8.25
2023-01-18T11:27:01.721Z,5.63
2023-01-18T11:29:32.343Z,4.53
2023-01-18T11:32:05.890Z,4.35
2023-01-18T11:34:36.086Z,4.32
2023-01-18T11:37:03.979Z,4.50
2023-01-18T11:39:32.277Z,4.20
2023-01-18T11:42:14.131Z,5.40
2023-01-18T11:45:12.130Z,4.93
2023-01-18T11:47:58.028Z,9.60
2023-01-18T11:50:54.842Z,5.53
2023-01-18T11:53:54.255Z,5.63
2023-01-18T11:56:31.333Z,7.55
2023-01-18T11:58:58.388Z,6.38
2023-01-18T12:01:52.681Z,4.78
2023-01-18T12:04:42.042Z,9.23
2023-01-18T12:07:42.344Z,4.53
2023-01-18T12:10:18.611Z,3.55
2023-01-18T12:13:18.766Z,2.50
2023-01-18T12:16:08.422Z,5.03
2023-01-18T12:18:34.877Z,5.18
2023-01-18T12:21:23.891Z,3.47
2023-01-18T12:24:17.933Z,5.47
2023-01-18T12:27:00.653Z,6.07
2023-01-18T12:29:30.312Z,6.00
2023-01-18T12:32:28.793Z,4.28
2023-01-18T12:35:15.582Z,7.43
2023-01-18T12:37:57.723Z,7.75
2023-01-18T12:40:42.590Z,5.72
2023-01-18T12:43:28.285Z,5.40
2023-01-18T12:46:04.487Z,4.50
2023-01-18T12:48:36.976Z,9.32
2023-01-18T12:51:14.802Z,8.52
2023-01-18T12:53:50.531Z,7.15
2023-01-18T12:56:25.604Z,8.07
2023-01-18T12:59:01.750Z,8.18
2023-01-18T13:01:33.910Z,5.80
2023-01-18T13:04:11.666Z,6.85
2023-01-18T13:06:39.486Z,13.07
2023-01-18T13:09:14.238Z,10.55
2023-01-18T13:11:43.246Z,17.08
2023-01-18T13:14:33.534Z,12.45
2023-01-18T13:17:35.408Z,8.60
2023-01-18T13:20:12.792Z,7.78
2023-01-18T13:23:14.576Z,9.05
2023-01-18T13:26:10.099Z,10.98
2023-01-18T13:28:37.035Z,10.48
2023-01-18T13:31:06.239Z,11.20
2023-01-18T13:33:36.566Z,10.52
2023-01-18T13:36:08.013Z,13.02
2023-01-18T13:38:42.304Z,14.50
2023-01-18T13:41:13.484Z,14.70
2023-01-18T13:43:41.355Z,9.65
2023-01-18T13:46:07.927Z,8.98
2023-01-18T13:48:45.115Z,9.98
2023-01-18T13:51:40.776Z,13.07
2023-01-18T13:54:18.583Z,15.50
2023-01-18T13:57:04.456Z,13.73
2023-01-18T13:59:40.660Z,16.95
2023-01-18T14:02:29.226Z,16.77
2023-01-18T14:05:07.628Z,15.48
2023-01-18T14:07:47.139Z,15.52
2023-01-18T14:10:25.722Z,13.00
2023-01-18T14:12:55.434Z,14.40
2023-01-18T14:15:40.101Z,11.03
2023-01-18T14:18:29.689Z,11.45
2023-01-18T14:21:05.172Z,11.00
2023-01-18T14:24:06.649Z,11.75
2023-01-18T14:26:36.233Z,13.57
2023-01-18T14:29:08.130Z,11.40
2023-01-18T14:31:40.696Z,13.60
2023-01-18T14:34:40.861Z,13.00
2023-01-18T14:37:28.795Z,11.60
2023-01-18T14:40:16.209Z,16.80
2023-01-18T14:42:50.854Z,13.55
2023-01-18T14:45:27.114Z,13.13
2023-01-18T14:47:56.276Z,18.83
2023-01-18T14:50:26.303Z,12.18
2023-01-18T14:52:53.955Z,13.25
2023-01-18T14:55:32.718Z,16.17
2023-01-18T14:58:15.503Z,15.75
2023-01-18T15:00:49.017Z,15.77
2023-01-18T15:03:27.494Z,15.52
2023-01-18T15:06:09.240Z,15.65
2023-01-18T15:08:36.378Z,19.95
2023-01-18T15:11:05.185Z,14.55
2023-01-18T15:13:33.997Z,14.20
2023-01-18T15:16:02.202Z,13.35
2023-01-18T15:18:29.833Z,15.18
2023-01-18T15:21:15.415Z,15.10
2023-01-18T15:23:43.432Z,17.55
2023-01-18T15:26:10.068Z,20.08
2023-01-18T15:28:36.688Z,21.35
2023-01-18T15:31:13.276Z,16.75
2023-01-18T15:33:40.531Z,17.17
2023-01-18T15:36:09.656Z,16.05
2023-01-18T15:38:36.467Z,16.15
2023-01-18T15:41:14.775Z,19.65
2023-01-18T15:43:43.605Z,19.55
2023-01-18T15:46:14.636Z,22.13
2023-01-18T15:48:49.951Z,27.88
2023-01-18T15:51:16.789Z,21.23
2023-01-18T15:53:52.467Z,16.90
2023-01-18T15:56:25.464Z,18.00
2023-01-18T15:58:56.085Z,20.58
2023-01-18T16:04:01.087Z,19.48
2023-01-18T16:06:29.713Z,21.13
2023-01-18T16:09:13.250Z,22.27
2023-01-18T16:11:56.602Z,22.52
2023-01-18T16:14:25.711Z,24.35
2023-01-18T16:16:54.231Z,20.80
2023-01-18T16:19:29.064Z,24.48
2023-01-18T16:22:02.225Z,23.17
2023-01-18T16:24:28.752Z,27.17
2023-01-18T16:26:57.694Z,19.60
2023-01-18T16:29:24.387Z,22.65
2023-01-18T16:31:51.035Z,24.20
2023-01-18T16:34:23.954Z,22.70
2023-01-18T16:36:52.440Z,24.90
2023-01-18T16:39:20.401Z,24.45
2023-01-18T16:41:53.723Z,24.92
2023-01-18T16:44:20.983Z,23.42
2023-01-18T16:46:48.521Z,30.83
2023-01-18T16:49:16.249Z,21.20
2023-01-18T16:51:42.764Z,19.45
2023-01-18T16:54:09.300Z,23.95
2023-01-18T16:56:36.027Z,24.13
2023-01-18T16:59:14.732Z,24.33
2023-01-18T17:01:41.552Z,25.52
2023-01-18T17:04:09.798Z,27.35
2023-01-18T17:06:36.534Z,20.90
2023-01-18T17:09:03.685Z,22.33
2023-01-18T17:11:30.175Z,19.52
2023-01-18T17:13:56.736Z,22.45
2023-01-18T17:16:23.463Z,21.88
2023-01-18T17:18:50.254Z,20.00
2023-01-18T17:21:16.750Z,23.63
2023-01-18T17:23:43.314Z,20.00
2023-01-18T17:26:14.743Z,20.48
2023-01-18T17:28:41.331Z,17.33
2023-01-18T17:31:08.494Z,16.95
2023-01-18T17:33:40.957Z,20.80
2023-01-18T17:36:09.002Z,18.40
2023-01-18T17:38:41.910Z,19.52
2023-01-18T17:41:38.057Z,23.40
2023-01-18T17:46:57.033Z,19.88
2023-01-18T17:49:23.542Z,16.77
2023-01-18T17:51:50.279Z,18.92
2023-01-18T17:54:21.036Z,26.10
2023-01-18T17:56:47.653Z,22.42
2023-01-18T17:59:14.205Z,19.08
2023-01-18T18:01:41.235Z,19.48
2023-01-18T18:04:08.078Z,19.23
2023-01-18T18:06:36.328Z,18.33
2023-01-18T18:09:04.494Z,22.30
2023-01-18T18:11:31.165Z,17.20
2023-01-18T18:13:59.192Z,17.58
2023-01-18T18:16:26.673Z,21.55
2023-01-18T18:18:53.560Z,19.20
2023-01-18T18:21:23.052Z,17.80
2023-01-18T18:23:49.843Z,24.27
2023-01-18T18:26:16.374Z,18.13
2023-01-18T18:28:42.975Z,18.45
2023-01-18T18:31:15.494Z,21.50
2023-01-18T18:33:42.370Z,19.73
2023-01-18T18:36:09.017Z,28.35
2023-01-18T18:38:35.481Z,19.95
2023-01-18T18:41:03.935Z,21.90
2023-01-18T18:43:30.624Z,19.88
2023-01-18T18:45:57.622Z,23.35
2023-01-18T18:48:24.412Z,20.77
2023-01-18T18:50:54.113Z,19.98
2023-01-18T18:53:23.821Z,18.73
2023-01-18T18:55:59.327Z,21.50
2023-01-18T18:58:26.059Z,20.00
2023-01-18T19:00:52.529Z,20.13
2023-01-18T19:03:20.908Z,20.77
2023-01-18T19:05:47.365Z,23.23
2023-01-18T19:08:13.844Z,19.20
2023-01-18T19:10:40.392Z,23.40
2023-01-18T19:13:07.391Z,22.02
2023-01-18T19:15:33.842Z,19.85
2023-01-18T19:18:00.878Z,25.48
2023-01-18T19:20:27.598Z,25.73
2023-01-18T19:22:54.085Z,26.30
2023-01-18T19:25:20.744Z,24.27
2023-01-18T19:27:47.175Z,25.88
2023-01-18T19:30:18.565Z,26.63
2023-01-18T19:32:50.884Z,21.77
2023-01-18T19:35:18.876Z,26.17
2023-01-18T19:37:46.223Z,28.83
2023-01-18T19:40:13.896Z,28.58
2023-01-18T19:42:40.585Z,26.98
2023-01-18T19:45:11.507Z,25.38
2023-01-18T19:47:41.334Z,25.83
2023-01-18T19:50:08.463Z,24.35
2023-01-18T19:52:34.994Z,25.20
2023-01-18T19:55:03.043Z,23.92
2023-01-18T19:57:29.741Z,23.80
2023-01-18T19:59:57.178Z,24.75
2023-01-18T20:02:24.080Z,24.95
2023-01-18T20:04:51.986Z,23.52
2023-01-18T20:07:18.659Z,24.25
2023-01-18T20:09:45.429Z,21.02
2023-01-18T20:12:13.383Z,18.52
2023-01-18T20:14:42.476Z,21.70
2023-01-18T20:17:16.347Z,22.63
2023-01-18T20:19:44.296Z,27.40
2023-01-18T20:22:11.386Z,22.55
2023-01-18T20:24:37.875Z,22.08
2023-01-18T20:27:15.366Z,25.50
2023-01-18T20:29:43.745Z,20.58
2023-01-18T20:32:16.230Z,20.55
2023-01-18T20:34:44.789Z,22.88
2023-01-18T20:37:12.383Z,22.60
2023-01-18T20:39:39.320Z,28.75
2023-01-18T20:42:05.853Z,19.73
2023-01-18T20:44:33.405Z,23.65
2023-01-18T20:46:59.980Z,20.27
2023-01-18T20:49:36.983Z,21.52
2023-01-18T20:52:05.951Z,21.08
2023-01-18T20:54:34.660Z,19.67
2023-01-18T20:57:01.457Z,20.80
2023-01-18T20:59:28.735Z,19.45
2023-01-18T21:01:55.461Z,19.40
2023-01-18T21:04:22.079Z,20.23
2023-01-18T21:06:49.944Z,22.42
2023-01-18T21:09:16.869Z,19.02
2023-01-18T21:11:43.793Z,16.30
2023-01-18T21:14:10.404Z,19.85
2023-01-18T21:16:37.184Z,18.80
2023-01-18T21:19:03.821Z,19.92
2023-01-18T21:21:31.829Z,18.15
2023-01-18T21:23:59.441Z,17.60
2023-01-18T21:26:26.232Z,18.88
2023-01-18T21:28:53.715Z,19.25
2023-01-18T21:31:20.635Z,20.13
2023-01-18T21:33:47.254Z,21.42
2023-01-18T21:36:17.424Z,23.80
2023-01-18T21:38:44.390Z,18.95
2023-01-18T21:41:29.897Z,22.27
2023-01-18T21:44:15.006Z,22.45
2023-01-18T21:46:47.023Z,17.83
2023-01-18T21:50:03.938Z,20.67
2023-01-18T21:52:37.878Z,21.90
2023-01-18T21:55:04.787Z,18.88
2023-01-18T21:57:31.314Z,17.77
2023-01-18T21:59:57.964Z,19.95
2023-01-18T22:02:24.655Z,21.55
2023-01-18T22:05:00.442Z,24.50
2023-01-18T22:07:28.174Z,21.52
2023-01-18T22:10:04.098Z,20.48
2023-01-18T22:12:33.398Z,19.30
2023-01-18T22:15:01.958Z,20.17
2023-01-18T22:17:28.688Z,20.00
2023-01-18T22:19:55.388Z,22.90
2023-01-18T22:22:21.898Z,20.33
2023-01-18T22:24:48.345Z,22.10
2023-01-18T22:27:14.835Z,20.42
2023-01-18T22:29:41.499Z,19.33
2023-01-18T22:32:08.123Z,20.42
2023-01-18T22:34:34.684Z,23.90
2023-01-18T22:37:01.114Z,24.05
2023-01-18T22:39:27.578Z,22.00
2023-01-18T22:41:54.083Z,21.45
2023-01-18T22:44:20.806Z,21.88
2023-01-18T22:46:47.461Z,23.60
2023-01-18T22:49:14.124Z,23.15
2023-01-18T22:51:41.035Z,24.02
2023-01-18T22:54:07.749Z,24.85
2023-01-18T22:56:34.346Z,22.88
2023-01-18T22:59:00.860Z,25.23
2023-01-18T23:01:32.515Z,21.58
2023-01-18T23:04:02.338Z,19.30
2023-01-18T23:06:34.841Z,19.20
2023-01-18T23:09:01.499Z,25.17
2023-01-18T23:11:30.249Z,24.42
2023-01-18T23:14:16.933Z,23.10
2023-01-18T23:17:02.918Z,20.50
2023-01-18T23:19:30.998Z,20.00
2023-01-18T23:21:58.007Z,23.30
2023-01-18T23:24:25.271Z,19.98
2023-01-18T23:26:52.318Z,24.70
2023-01-18T23:29:20.051Z,21.95
2023-01-18T23:31:46.928Z,21.55
2023-01-18T23:34:13.485Z,18.52
2023-01-18T23:36:40.142Z,20.95
2023-01-18T23:39:25.315Z,21.08
2023-01-18T23:42:10.354Z,24.23
2023-01-18T23:44:55.360Z,21.58
2023-01-18T23:47:40.136Z,20.20
2023-01-18T23:50:25.684Z,23.63
2023-01-18T23:53:11.143Z,21.00
2023-01-18T23:55:37.798Z,24.27
2023-01-18T23:58:04.329Z,25.60
